Time;durP1;ratioP1;P1;durP2;ratioP2;P2;SDS_P1;SDS_P2;PMS_P1;PMS_P2;Temp;Humidity;BMP_temperature;BMP_pressure;BME280_temperature;BME280_humidity;BME280_pressure;Samples;Min_cycle;Max_cycle;Signal;HPM_P1;HPM_P2
2022/11/26 00:01:39;;;;;;;24.08;15.07;;;;;;;5.21;100.00;102517.56;5009311;28;20018;-72
2022/11/26 00:04:05;;;;;;;27.50;15.13;;;;;;;5.23;100.00;102516.56;5009238;28;20088;-73
2022/11/26 00:06:35;;;;;;;27.55;15.02;;;;;;;5.18;100.00;102523.34;5007220;28;20512;-71
2022/11/26 00:09:02;;;;;;;24.75;14.30;;;;;;;5.13;100.00;102520.22;5015381;28;20361;-73
2022/11/26 00:11:28;;;;;;;27.42;16.27;;;;;;;5.13;100.00;102528.38;5029198;28;20056;-72
2022/11/26 00:13:53;;;;;;;26.33;14.70;;;;;;;5.11;100.00;102530.38;5015115;28;20380;-73
2022/11/26 00:16:18;;;;;;;27.88;15.98;;;;;;;5.08;100.00;102533.44;5007522;28;20720;-72
2022/11/26 00:18:44;;;;;;;26.58;16.13;;;;;;;5.05;100.00;102527.44;5008890;28;20045;-73
2022/11/26 00:21:37;;;;;;;28.00;14.35;;;;;;;5.06;100.00;102534.59;5008435;28;20025;-72
2022/11/26 00:24:03;;;;;;;25.67;15.18;;;;;;;5.00;100.00;102538.78;5007999;28;20046;-72
2022/11/26 00:26:29;;;;;;;25.00;14.93;;;;;;;4.98;100.00;102539.97;5010566;28;20079;-72
2022/11/26 00:28:58;;;;;;;23.63;14.98;;;;;;;4.98;100.00;102531.78;5008533;28;20117;-72
2022/11/26 00:31:24;;;;;;;26.08;15.38;;;;;;;4.95;100.00;102543.81;5009330;28;20450;-74
2022/11/26 00:33:49;;;;;;;29.38;14.32;;;;;;;4.93;100.00;102537.69;5007568;28;20045;-74
2022/11/26 00:36:26;;;;;;;28.65;15.68;;;;;;;4.93;100.00;102538.53;5008298;28;20389;-72
2022/11/26 00:39:11;;;;;;;24.85;15.77;;;;;;;4.90;100.00;102538.84;5028103;28;20058;-72
2022/11/26 00:41:38;;;;;;;26.05;14.93;;;;;;;4.89;100.00;102544.44;5017268;28;20062;-72
2022/11/26 00:44:21;;;;;;;29.60;15.52;;;;;;;4.87;100.00;102536.44;5007095;28;20033;-73
2022/11/26 00:46:46;;;;;;;26.73;15.38;;;;;;;4.86;100.00;102539.28;5009027;28;20476;-72
2022/11/26 00:49:12;;;;;;;25.77;13.93;;;;;;;4.81;100.00;102545.19;5010270;28;20033;-73
2022/11/26 00:51:38;;;;;;;25.02;16.00;;;;;;;4.80;100.00;102539.91;5007524;28;20022;-72
2022/11/26 00:54:05;;;;;;;29.08;14.73;;;;;;;4.78;100.00;102544.66;5006153;28;20125;-73
2022/11/26 00:56:31;;;;;;;27.13;14.65;;;;;;;4.76;100.00;102544.78;5024806;28;20038;-72
2022/11/26 00:58:56;;;;;;;22.75;14.63;;;;;;;4.72;100.00;102537.09;5024517;28;20479;-73
2022/11/26 01:01:25;;;;;;;29.25;14.57;;;;;;;4.67;100.00;102549.28;5007136;28;20030;-72
2022/11/26 01:03:51;;;;;;;24.15;15.07;;;;;;;4.67;100.00;102545.72;5007199;28;20504;-72
2022/11/26 01:06:21;;;;;;;26.13;14.85;;;;;;;4.64;100.00;102552.28;5005791;28;20380;-72
2022/11/26 01:08:47;;;;;;;26.52;14.93;;;;;;;4.66;100.00;102552.13;5005412;28;20034;-72
2022/11/26 01:11:15;;;;;;;27.83;14.48;;;;;;;4.63;100.00;102545.16;5015495;28;20050;-72
2022/11/26 01:13:43;;;;;;;22.30;14.02;;;;;;;4.62;100.00;102548.03;5008894;28;20037;-73
2022/11/26 01:16:22;;;;;;;26.65;14.63;;;;;;;4.63;100.00;102555.19;5007695;28;20025;-73
2022/11/26 01:18:50;;;;;;;25.50;14.73;;;;;;;4.57;100.00;102561.22;5007350;28;20044;-72
2022/11/26 01:21:16;;;;;;;25.17;14.50;;;;;;;4.57;100.00;102553.06;5007899;28;20034;-73
2022/11/26 01:23:41;;;;;;;24.00;14.10;;;;;;;4.51;100.00;102553.63;5004651;28;20467;-72
2022/11/26 01:26:13;;;;;;;20.52;13.60;;;;;;;4.47;100.00;102544.06;5006303;28;20083;-73
2022/11/26 01:28:39;;;;;;;22.25;13.88;;;;;;;4.38;100.00;102551.25;5007897;28;20050;-73
2022/11/26 01:31:04;;;;;;;21.35;13.32;;;;;;;4.32;100.00;102541.84;5007554;28;20041;-73
2022/11/26 01:33:29;;;;;;;24.95;13.95;;;;;;;4.30;100.00;102551.13;5004292;28;20091;-72
2022/11/26 01:35:55;;;;;;;25.75;14.68;;;;;;;4.34;100.00;102544.41;5004415;28;20493;-72
2022/11/26 01:38:20;;;;;;;22.00;13.82;;;;;;;4.29;100.00;102546.69;5007240;28;20059;-74
2022/11/26 01:41:02;;;;;;;24.80;14.48;;;;;;;4.20;100.00;102547.59;5014503;28;20109;-72
2022/11/26 01:43:41;;;;;;;20.17;13.30;;;;;;;4.15;100.00;102545.31;5010094;28;20481;-73
2022/11/26 01:46:18;;;;;;;21.52;13.85;;;;;;;4.14;100.00;102552.59;5007476;28;20076;-72
2022/11/26 01:48:45;;;;;;;21.63;13.52;;;;;;;4.16;100.00;102553.34;5006268;28;20038;-72
2022/11/26 01:51:12;;;;;;;27.90;15.45;;;;;;;4.19;100.00;102556.75;5006946;28;20129;-72
2022/11/26 01:53:42;;;;;;;22.13;14.10;;;;;;;4.16;100.00;102558.78;5006688;28;20088;-73
2022/11/26 01:56:18;;;;;;;21.25;13.95;;;;;;;4.21;100.00;102554.72;5006449;28;20053;-73
2022/11/26 01:58:49;;;;;;;24.73;14.20;;;;;;;4.21;100.00;102561.06;5006698;28;20041;-73
2022/11/26 02:01:15;;;;;;;20.52;13.63;;;;;;;4.23;100.00;102559.03;5006521;28;20022;-72
2022/11/26 02:03:48;;;;;;;25.08;14.95;;;;;;;4.28;100.00;102572.19;5097722;22;20114;-73
2022/11/26 02:06:18;;;;;;;31.45;15.27;;;;;;;4.30;100.00;102562.00;5061858;28;20055;-73
2022/11/26 02:08:43;;;;;;;22.75;15.13;;;;;;;4.29;100.00;102568.47;5063549;28;20055;-72
2022/11/26 02:11:19;;;;;;;27.52;14.98;;;;;;;4.29;100.00;102565.75;5064645;28;20467;-72
2022/11/26 02:13:48;;;;;;;29.02;15.27;;;;;;;4.29;100.00;102573.91;5066311;28;20115;-72
2022/11/26 02:16:36;;;;;;;26.70;15.38;;;;;;;4.31;100.00;102574.59;5065625;28;20056;-74
2022/11/26 02:19:23;;;;;;;24.35;15.55;;;;;;;4.29;100.00;102579.34;5047024;28;20068;-73
2022/11/26 02:21:57;;;;;;;27.35;15.10;;;;;;;4.25;100.00;102592.38;5046253;28;20108;-73
2022/11/26 02:24:48;;;;;;;26.50;15.25;;;;;;;4.28;100.00;102594.81;5048219;28;20020;-73
2022/11/26 02:27:26;;;;;;;28.08;16.80;;;;;;;4.29;100.00;102606.53;5065800;28;20032;-73
2022/11/26 02:30:02;;;;;;;24.83;15.63;;;;;;;4.30;100.00;102600.94;5065858;28;20033;-72
2022/11/26 02:32:41;;;;;;;27.77;15.48;;;;;;;4.26;100.00;102601.38;5062635;28;20375;-73
2022/11/26 02:35:25;;;;;;;23.65;14.73;;;;;;;4.27;100.00;102603.13;5060839;28;20041;-73
2022/11/26 02:37:55;;;;;;;25.25;14.82;;;;;;;4.28;100.00;102602.09;5066365;28;20035;-73
2022/11/26 02:40:21;;;;;;;25.50;14.90;;;;;;;4.24;100.00;102598.81;5064475;28;20028;-73
2022/11/26 02:42:47;;;;;;;26.38;14.93;;;;;;;4.23;100.00;102585.38;5065954;28;20035;-72
2022/11/26 02:45:17;;;;;;;27.05;15.18;;;;;;;4.20;100.00;102591.94;5066106;28;20032;-72
2022/11/26 02:47:46;;;;;;;23.17;14.65;;;;;;;4.19;100.00;102589.38;5063657;28;20063;-73
2022/11/26 02:50:18;;;;;;;24.60;14.30;;;;;;;4.16;100.00;102594.13;5067644;28;20040;-73
2022/11/26 02:52:43;;;;;;;21.42;14.68;;;;;;;4.17;100.00;102592.25;5068733;28;20040;-73
2022/11/26 02:55:12;;;;;;;23.55;14.75;;;;;;;4.16;100.00;102596.00;5069140;28;20153;-73
2022/11/26 02:57:44;;;;;;;22.20;13.70;;;;;;;4.14;100.00;102604.25;5068210;28;20028;-72
2022/11/26 03:00:10;;;;;;;21.17;13.90;;;;;;;4.09;100.00;102603.00;5065517;28;20093;-73
2022/11/26 03:03:00;;;;;;;25.40;14.88;;;;;;;4.11;100.00;102599.13;5067136;28;20048;-73
2022/11/26 03:05:30;;;;;;;22.80;14.25;;;;;;;4.08;100.00;102604.84;5068309;28;20436;-72
2022/11/26 03:07:56;;;;;;;23.92;14.45;;;;;;;4.10;100.00;102612.84;5068322;28;20570;-73
2022/11/26 03:10:27;;;;;;;26.48;15.25;;;;;;;4.11;100.00;102611.88;5064810;28;20032;-73
2022/11/26 03:12:52;;;;;;;25.92;15.10;;;;;;;4.07;100.00;102614.03;5068360;28;20370;-73
2022/11/26 03:15:17;;;;;;;23.27;14.55;;;;;;;4.02;100.00;102610.88;5069008;28;20041;-72
2022/11/26 03:17:43;;;;;;;26.58;14.60;;;;;;;4.02;100.00;102616.31;5069474;28;20364;-74
2022/11/26 03:20:08;;;;;;;21.23;14.07;;;;;;;4.00;100.00;102626.47;5066380;28;20487;-73
2022/11/26 03:22:34;;;;;;;24.35;14.23;;;;;;;3.98;100.00;102631.19;5068799;28;20024;-73
2022/11/26 03:24:59;;;;;;;24.55;14.23;;;;;;;3.93;100.00;102627.19;5067048;28;20059;-73
2022/11/26 03:27:24;;;;;;;26.05;14.57;;;;;;;3.96;100.00;102629.63;5069210;28;20093;-73
2022/11/26 03:29:50;;;;;;;27.40;14.40;;;;;;;3.95;100.00;102631.47;5066743;28;20083;-72
2022/11/26 03:32:15;;;;;;;24.63;14.85;;;;;;;3.95;100.00;102628.75;5068760;28;20036;-72
2022/11/26 03:34:41;;;;;;;27.73;14.98;;;;;;;3.96;100.00;102626.91;5048331;28;20032;-72
2022/11/26 03:37:07;;;;;;;24.60;13.82;;;;;;;3.97;100.00;102636.78;5068025;28;20033;-73
2022/11/26 03:39:32;;;;;;;29.23;14.95;;;;;;;3.99;100.00;102635.63;5066276;28;20047;-72
2022/11/26 03:41:57;;;;;;;25.55;14.32;;;;;;;4.00;100.00;102640.06;5084617;28;20127;-73
2022/11/26 03:44:23;;;;;;;21.75;14.70;;;;;;;3.98;100.00;102642.06;5086584;28;20028;-73
2022/11/26 03:46:48;;;;;;;25.88;15.65;;;;;;;4.00;100.00;102639.19;5052341;28;20035;-72
2022/11/26 03:49:13;;;;;;;29.85;14.80;;;;;;;3.99;100.00;102638.34;5052122;28;20017;-72
2022/11/26 03:51:38;;;;;;;26.45;14.73;;;;;;;4.00;100.00;102634.63;5067572;28;20024;-72
2022/11/26 03:54:04;;;;;;;27.02;14.70;;;;;;;3.99;100.00;102642.91;5067957;28;20035;-72
2022/11/26 03:56:29;;;;;;;24.27;13.98;;;;;;;4.03;100.00;102638.91;5068156;28;20036;-72
2022/11/26 03:58:54;;;;;;;25.73;15.20;;;;;;;4.03;100.00;102644.34;5067686;28;20418;-73
2022/11/26 04:01:19;;;;;;;27.73;14.52;;;;;;;4.06;100.00;102641.38;5068400;28;20035;-73
2022/11/26 04:03:45;;;;;;;26.52;14.75;;;;;;;4.07;100.00;102640.34;5066619;28;20048;-72
2022/11/26 04:06:10;;;;;;;20.55;14.13;;;;;;;4.04;100.00;102643.34;5066190;28;20764;-72
2022/11/26 04:08:35;;;;;;;32.88;14.95;;;;;;;4.05;100.00;102647.78;5048956;28;20111;-72
2022/11/26 04:11:00;;;;;;;29.73;14.80;;;;;;;4.02;100.00;102648.94;5066609;28;20056;-72
2022/11/26 04:13:26;;;;;;;27.85;14.48;;;;;;;4.02;100.00;102654.38;5067621;28;20342;-73
2022/11/26 04:15:51;;;;;;;24.23;13.15;;;;;;;3.98;100.00;102661.09;5067157;28;20036;-73
2022/11/26 04:18:16;;;;;;;27.35;13.77;;;;;;;3.93;100.00;102665.25;5067761;28;20062;-74
2022/11/26 04:20:42;;;;;;;24.02;14.70;;;;;;;3.94;100.00;102670.53;5063732;28;20078;-73
2022/11/26 04:23:07;;;;;;;24.50;13.98;;;;;;;3.92;100.00;102671.69;5066932;28;20032;-74
2022/11/26 04:25:32;;;;;;;22.20;13.85;;;;;;;3.91;100.00;102662.69;5064139;28;20012;-73
2022/11/26 04:27:58;;;;;;;26.20;14.30;;;;;;;3.89;100.00;102664.66;5067815;28;20081;-73
2022/11/26 04:30:24;;;;;;;20.42;12.75;;;;;;;3.84;100.00;102677.81;5067915;28;20074;-73
2022/11/26 04:32:49;;;;;;;26.40;13.32;;;;;;;3.84;100.00;102667.81;5067747;28;20020;-74
2022/11/26 04:35:14;;;;;;;24.10;13.20;;;;;;;3.78;100.00;102679.25;5064294;28;20469;-73
2022/11/26 04:37:39;;;;;;;22.02;13.70;;;;;;;3.83;100.00;102674.25;5067270;28;20058;-73
2022/11/26 04:40:06;;;;;;;25.58;14.25;;;;;;;3.82;100.00;102674.41;5066445;28;20078;-73
2022/11/26 04:42:31;;;;;;;24.05;13.75;;;;;;;3.80;100.00;102673.66;5065380;28;20701;-73
2022/11/26 04:44:56;;;;;;;27.63;14.45;;;;;;;3.77;100.00;102665.81;5064906;28;20028;-74
2022/11/26 04:47:21;;;;;;;28.40;14.25;;;;;;;3.75;100.00;102673.22;5055086;28;20094;-72
2022/11/26 04:49:47;;;;;;;25.23;14.10;;;;;;;3.79;100.00;102680.09;5046271;28;20033;-74
2022/11/26 04:52:12;;;;;;;21.95;13.55;;;;;;;3.81;100.00;102678.97;5063017;28;20028;-73
2022/11/26 04:54:37;;;;;;;27.25;13.77;;;;;;;3.79;100.00;102674.66;5066514;28;20518;-73
2022/11/26 04:57:03;;;;;;;25.60;13.77;;;;;;;3.76;100.00;102677.69;5066038;28;20048;-73
2022/11/26 04:59:28;;;;;;;24.30;14.55;;;;;;;3.71;100.00;102680.81;5065532;28;20365;-73
2022/11/26 05:01:53;;;;;;;27.13;13.23;;;;;;;3.68;100.00;102672.09;5064389;28;20123;-74
2022/11/26 05:04:19;;;;;;;24.92;13.95;;;;;;;3.72;100.00;102673.53;5063738;28;20514;-73
2022/11/26 05:06:44;;;;;;;23.27;12.65;;;;;;;3.69;100.00;102676.50;5066155;28;20109;-73
2022/11/26 05:09:10;;;;;;;21.33;13.27;;;;;;;3.68;100.00;102682.97;5065214;28;20048;-74
2022/11/26 05:11:35;;;;;;;23.60;13.73;;;;;;;3.72;100.00;102687.13;5064575;28;20446;-73
2022/11/26 05:14:00;;;;;;;31.10;13.40;;;;;;;3.71;100.00;102686.25;5065602;28;20036;-73
2022/11/26 05:16:25;;;;;;;23.30;13.13;;;;;;;3.74;100.00;102694.13;5065393;28;20028;-72
2022/11/26 05:18:51;;;;;;;26.75;13.15;;;;;;;3.74;100.00;102696.81;5065291;28;20020;-73
2022/11/26 05:21:16;;;;;;;27.50;13.40;;;;;;;3.78;100.00;102694.69;5064678;28;20036;-74
2022/11/26 05:23:41;;;;;;;27.17;13.52;;;;;;;3.80;100.00;102698.13;5064291;28;20493;-73
2022/11/26 05:26:06;;;;;;;25.27;13.75;;;;;;;3.79;100.00;102697.25;5065092;28;20086;-73
2022/11/26 05:28:32;;;;;;;27.92;13.05;;;;;;;3.80;100.00;102698.13;5066312;28;20020;-73
2022/11/26 05:30:59;;;;;;;28.35;12.98;;;;;;;3.79;100.00;102686.41;5062410;28;20047;-72
2022/11/26 05:33:26;;;;;;;26.33;13.95;;;;;;;3.80;100.00;102688.13;5062678;28;20506;-73
2022/11/26 05:35:51;;;;;;;27.30;14.13;;;;;;;3.83;100.00;102696.00;5063371;28;20379;-73
2022/11/26 05:38:16;;;;;;;27.67;13.07;;;;;;;3.81;100.00;102699.88;5066552;28;20034;-73
2022/11/26 05:40:41;;;;;;;25.05;13.48;;;;;;;3.80;100.00;102698.13;5063517;28;20021;-73
2022/11/26 05:43:07;;;;;;;32.03;13.63;;;;;;;3.81;100.00;102699.88;5064346;28;20040;-72
2022/11/26 05:45:32;;;;;;;28.50;13.73;;;;;;;3.82;100.00;102699.72;5066664;28;20115;-72
2022/11/26 05:47:57;;;;;;;27.95;13.80;;;;;;;3.80;100.00;102706.28;5065846;28;20029;-73
2022/11/26 05:50:22;;;;;;;23.80;13.13;;;;;;;3.81;100.00;102713.47;5063383;28;20028;-72
2022/11/26 05:52:48;;;;;;;29.88;13.48;;;;;;;3.81;100.00;102711.59;5063705;28;20439;-73
2022/11/26 05:55:15;;;;;;;25.27;13.38;;;;;;;3.80;100.00;102709.88;5064922;28;20047;-71
2022/11/26 05:57:40;;;;;;;23.40;12.70;;;;;;;3.79;100.00;102713.56;5066797;28;20044;-73
2022/11/26 06:00:06;;;;;;;22.95;12.98;;;;;;;3.77;100.00;102710.16;5047434;28;20136;-73
2022/11/26 06:02:32;;;;;;;25.70;13.20;;;;;;;3.78;100.00;102720.00;5064281;28;20044;-72
2022/11/26 06:04:57;;;;;;;27.00;13.05;;;;;;;3.79;100.00;102726.31;5061554;28;20067;-73
2022/11/26 06:07:22;;;;;;;23.02;13.13;;;;;;;3.76;100.00;102730.19;5065775;28;20027;-73
2022/11/26 06:09:47;;;;;;;23.95;13.32;;;;;;;3.75;100.00;102735.72;5065231;28;20063;-73
2022/11/26 06:12:13;;;;;;;25.88;12.00;;;;;;;3.74;100.00;102731.31;5063966;28;20056;-72
2022/11/26 06:14:38;;;;;;;23.25;12.70;;;;;;;3.76;100.00;102734.75;5065784;28;20033;-73
2022/11/26 06:17:03;;;;;;;26.98;12.18;;;;;;;3.74;100.00;102732.16;5047812;28;20032;-73
2022/11/26 06:19:28;;;;;;;23.45;13.18;;;;;;;3.72;100.00;102734.16;5063606;28;20036;-74
2022/11/26 06:21:54;;;;;;;28.20;12.63;;;;;;;3.70;100.00;102732.56;5063683;28;20028;-73
2022/11/26 06:24:19;;;;;;;24.67;13.27;;;;;;;3.67;100.00;102736.44;5068305;28;20059;-72
2022/11/26 06:26:44;;;;;;;25.40;12.32;;;;;;;3.68;100.00;102734.59;5070309;28;20032;-73
2022/11/26 06:29:10;;;;;;;23.17;12.57;;;;;;;3.67;100.00;102738.31;5068935;28;20043;-73
2022/11/26 06:31:35;;;;;;;21.52;11.93;;;;;;;3.70;100.00;102738.00;5068280;28;20391;-72
2022/11/26 06:34:01;;;;;;;27.92;13.00;;;;;;;3.70;100.00;102735.28;5067500;28;20398;-73
2022/11/26 06:36:26;;;;;;;23.67;11.80;;;;;;;3.66;100.00;102742.88;5067993;28;20090;-73
2022/11/26 06:38:51;;;;;;;24.00;12.63;;;;;;;3.70;100.00;102744.34;5066808;28;20028;-73
2022/11/26 06:41:16;;;;;;;27.70;12.85;;;;;;;3.71;100.00;102742.47;5068999;28;20025;-73
2022/11/26 06:43:42;;;;;;;23.70;12.48;;;;;;;3.71;100.00;102753.34;5069285;28;20043;-73
2022/11/26 06:46:09;;;;;;;25.35;12.18;;;;;;;3.71;100.00;102756.91;5068764;28;20024;-73
2022/11/26 06:48:36;;;;;;;23.40;12.90;;;;;;;3.70;100.00;102754.31;5069512;28;20078;-73
2022/11/26 06:51:11;;;;;;;22.95;11.82;;;;;;;3.71;100.00;102756.91;5067417;28;20104;-74
2022/11/26 06:53:37;;;;;;;22.10;12.00;;;;;;;3.70;100.00;102752.47;5068060;28;20033;-72
2022/11/26 06:56:11;;;;;;;20.02;11.13;;;;;;;3.70;100.00;102752.47;5067258;28;20060;-73
2022/11/26 06:58:37;;;;;;;23.15;11.73;;;;;;;3.68;100.00;102748.16;5069031;28;20102;-73
2022/11/26 07:01:10;;;;;;;21.13;10.63;;;;;;;3.68;100.00;102756.31;5065986;28;20074;-73
2022/11/26 07:03:36;;;;;;;25.65;11.98;;;;;;;3.64;100.00;102756.59;5066788;28;20371;-73
2022/11/26 07:06:01;;;;;;;23.48;11.23;;;;;;;3.63;100.00;102757.59;5066784;28;20024;-73
2022/11/26 07:08:26;;;;;;;25.17;11.43;;;;;;;3.67;100.00;102754.59;5067641;28;20040;-72
2022/11/26 07:10:51;;;;;;;23.95;12.13;;;;;;;3.69;100.00;102756.16;5065840;28;20537;-72
2022/11/26 07:13:17;;;;;;;22.15;11.40;;;;;;;3.70;100.00;102767.91;5068471;28;20123;-72
2022/11/26 07:15:42;;;;;;;25.92;11.60;;;;;;;3.69;100.00;102772.47;5067858;28;20029;-73
2022/11/26 07:18:07;;;;;;;22.98;11.50;;;;;;;3.72;100.00;102777.66;5067167;28;20039;-72
2022/11/26 07:20:35;;;;;;;19.33;11.73;;;;;;;3.74;100.00;102782.94;5051337;28;20107;-72
2022/11/26 07:23:01;;;;;;;26.70;11.80;;;;;;;3.75;100.00;102781.94;5054481;28;20039;-73
2022/11/26 07:25:28;;;;;;;22.95;11.43;;;;;;;3.76;100.00;102786.41;5066637;28;20025;-73
2022/11/26 07:27:53;;;;;;;23.02;11.05;;;;;;;3.77;100.00;102788.09;5068948;28;20383;-72
2022/11/26 07:30:19;;;;;;;26.50;11.80;;;;;;;3.76;100.00;102784.53;5068386;28;20036;-73
2022/11/26 07:32:44;;;;;;;27.45;12.25;;;;;;;3.80;100.00;102788.69;5068029;28;20504;-72
2022/11/26 07:35:09;;;;;;;28.55;11.30;;;;;;;3.83;100.00;102787.53;5063974;28;20151;-72
2022/11/26 07:37:35;;;;;;;28.75;12.15;;;;;;;3.84;100.00;102786.53;5066939;28;20366;-72
2022/11/26 07:40:00;;;;;;;25.52;11.20;;;;;;;3.85;100.00;102788.25;5067164;28;20033;-72
2022/11/26 07:42:29;;;;;;;25.98;11.88;;;;;;;3.85;100.00;102786.44;5066334;28;20013;-73
2022/11/26 07:44:54;;;;;;;27.48;12.60;;;;;;;3.91;100.00;102793.16;5066381;28;20036;-73
2022/11/26 07:47:20;;;;;;;23.15;10.95;;;;;;;3.94;100.00;102792.84;5050840;28;20081;-73
2022/11/26 07:49:45;;;;;;;23.20;11.13;;;;;;;3.94;100.00;102792.84;5066591;28;20094;-72
2022/11/26 07:52:10;;;;;;;27.60;11.57;;;;;;;3.99;100.00;102797.88;5068514;28;20040;-73
2022/11/26 07:54:36;;;;;;;26.52;11.85;;;;;;;4.00;100.00;102788.72;5067167;28;20417;-73
2022/11/26 07:57:02;;;;;;;24.63;11.45;;;;;;;4.03;100.00;102796.59;5068645;28;20051;-73
2022/11/26 07:59:27;;;;;;;27.08;11.77;;;;;;;4.06;100.00;102786.31;5068451;28;20123;-73
2022/11/26 08:01:52;;;;;;;31.77;12.38;;;;;;;4.10;100.00;102790.44;5068053;28;20028;-73
2022/11/26 08:04:17;;;;;;;23.13;12.02;;;;;;;4.14;100.00;102783.75;5062172;28;20106;-73
2022/11/26 08:06:43;;;;;;;26.73;12.25;;;;;;;4.19;100.00;102788.75;5067207;28;20355;-73
2022/11/26 08:09:09;;;;;;;24.55;13.07;;;;;;;4.24;100.00;102794.63;5067888;28;20063;-73
2022/11/26 08:11:34;;;;;;;27.52;13.30;;;;;;;4.31;100.00;102794.91;5067988;28;20032;-72
2022/11/26 08:14:05;;;;;;;22.77;13.98;;;;;;;4.36;100.00;102800.81;5065302;28;20075;-74
2022/11/26 08:16:30;;;;;;;31.88;15.32;;;;;;;4.45;100.00;102794.50;5067547;28;20033;-74
2022/11/26 08:18:59;;;;;;;27.13;14.30;;;;;;;4.54;100.00;102807.25;5065879;28;20379;-72
2022/11/26 08:21:24;;;;;;;27.50;16.15;;;;;;;4.68;100.00;102795.94;5067941;28;20770;-73
2022/11/26 08:23:51;;;;;;;25.33;16.13;;;;;;;4.93;100.00;102802.66;5064817;28;20119;-73
2022/11/26 08:26:16;;;;;;;29.42;16.42;;;;;;;5.17;100.00;102801.28;5065004;28;20403;-73
2022/11/26 08:28:42;;;;;;;25.70;14.45;;;;;;;5.23;100.00;102811.63;5063575;28;20020;-73
2022/11/26 08:31:09;;;;;;;24.80;15.15;;;;;;;5.25;100.00;102797.84;5066075;28;20099;-73
2022/11/26 08:33:36;;;;;;;24.00;15.10;;;;;;;5.24;100.00;102807.03;5066002;28;20032;-73
2022/11/26 08:36:01;;;;;;;26.60;14.57;;;;;;;5.23;100.00;102810.78;5066106;28;20074;-72
2022/11/26 08:38:29;;;;;;;21.65;14.18;;;;;;;5.21;100.00;102821.78;5065850;28;20145;-72
2022/11/26 08:40:58;;;;;;;23.40;14.45;;;;;;;5.23;100.00;102818.94;5065301;28;20031;-72
2022/11/26 08:43:23;;;;;;;25.52;13.95;;;;;;;5.25;100.00;102811.47;5047832;28;20021;-73
2022/11/26 08:45:57;;;;;;;25.13;14.50;;;;;;;5.25;100.00;102820.50;5064283;28;20443;-72
2022/11/26 08:48:24;;;;;;;23.83;13.48;;;;;;;5.27;100.00;102817.63;5065259;28;20025;-74
2022/11/26 08:50:49;;;;;;;25.42;13.48;;;;;;;5.29;100.00;102816.47;5064822;28;20033;-72
2022/11/26 08:53:15;;;;;;;27.73;14.35;;;;;;;5.31;100.00;102817.19;5064986;28;20375;-72
2022/11/26 08:55:40;;;;;;;26.48;13.45;;;;;;;5.35;100.00;102815.03;5063864;28;20101;-73
2022/11/26 08:58:06;;;;;;;27.55;13.68;;;;;;;5.36;100.00;102814.00;5065400;28;20028;-72
2022/11/26 09:00:31;;;;;;;25.75;14.82;;;;;;;5.40;100.00;102810.00;5065215;28;20020;-73
2022/11/26 09:02:56;;;;;;;30.17;13.35;;;;;;;5.42;100.00;102814.28;5064798;28;20040;-73
2022/11/26 09:05:21;;;;;;;25.50;14.25;;;;;;;5.48;100.00;102815.56;5061369;28;20028;-73
2022/11/26 09:07:47;;;;;;;23.02;13.05;;;;;;;5.53;100.00;102813.25;5064425;28;20021;-73
2022/11/26 09:10:12;;;;;;;24.10;14.13;;;;;;;5.58;100.00;102810.94;5064360;28;20103;-73
2022/11/26 09:12:38;;;;;;;21.55;13.25;;;;;;;5.60;100.00;102827.97;5065149;28;20378;-72
2022/11/26 09:15:03;;;;;;;26.77;14.43;;;;;;;5.62;100.00;102816.91;5063807;28;20499;-73
2022/11/26 09:17:29;;;;;;;26.40;12.98;;;;;;;5.62;100.00;102836.84;5064984;28;20085;-71
2022/11/26 09:19:55;;;;;;;25.05;13.02;;;;;;;5.63;100.00;102833.16;5063322;28;20036;-72
2022/11/26 09:22:21;;;;;;;28.08;14.05;;;;;;;5.66;100.00;102824.66;5063981;28;20059;-72
2022/11/26 09:24:46;;;;;;;28.58;14.02;;;;;;;5.71;100.00;102827.78;5064910;28;20052;-73
2022/11/26 09:27:11;;;;;;;29.30;13.77;;;;;;;5.77;100.00;102833.66;5064643;28;20483;-72
2022/11/26 09:29:37;;;;;;;26.55;13.25;;;;;;;5.81;100.00;102835.06;5055746;28;20025;-72
2022/11/26 09:32:02;;;;;;;28.33;14.60;;;;;;;5.86;100.00;102836.34;5050059;28;20074;-72
2022/11/26 09:34:28;;;;;;;28.75;13.68;;;;;;;5.90;100.00;102837.75;5065706;28;20029;-73
2022/11/26 09:36:53;;;;;;;27.45;13.90;;;;;;;6.03;100.00;102847.47;5066338;28;20021;-71
2022/11/26 09:39:18;;;;;;;26.80;14.05;;;;;;;6.12;100.00;102843.84;5066736;28;20027;-72
2022/11/26 09:41:55;;;;;;;25.20;14.23;;;;;;;6.17;100.00;102850.56;5065601;28;20028;-73
2022/11/26 09:44:42;;;;;;;25.48;14.35;;;;;;;6.23;100.00;102849.97;5066341;28;20320;-72
2022/11/26 09:47:07;;;;;;;23.35;13.00;;;;;;;6.27;100.00;102853.22;5066029;28;20025;-73
2022/11/26 09:49:54;;;;;;;23.90;12.77;;;;;;;6.30;100.00;102838.44;5065551;28;20430;-72
2022/11/26 09:52:22;;;;;;;27.95;14.65;;;;;;;6.36;100.00;102833.22;5065567;28;20847;-72
2022/11/26 09:54:51;;;;;;;28.75;14.90;;;;;;;6.44;100.00;102840.63;5065721;28;20146;-73
2022/11/26 09:57:27;;;;;;;31.75;14.90;;;;;;;6.56;100.00;102844.84;5066465;28;20594;-72
2022/11/26 09:59:54;;;;;;;24.88;13.70;;;;;;;6.64;100.00;102841.31;5065875;28;20032;-72
2022/11/26 10:02:19;;;;;;;30.50;13.45;;;;;;;6.64;100.00;102835.84;5065642;28;20033;-73
2022/11/26 10:04:46;;;;;;;26.23;14.27;;;;;;;6.65;100.00;102838.47;5065965;28;20031;-73
2022/11/26 10:07:23;;;;;;;29.80;14.75;;;;;;;6.73;100.00;102840.38;5066402;28;20044;-73
2022/11/26 10:09:49;;;;;;;25.27;12.80;;;;;;;6.69;100.00;102837.13;5065236;28;20120;-73
2022/11/26 10:12:35;;;;;;;26.07;13.53;;;;;;;6.69;100.00;102844.44;5064267;28;20099;-72
2022/11/26 10:15:19;;;;;;;29.52;13.52;;;;;;;6.70;100.00;102847.03;5065942;28;20154;-72
2022/11/26 10:18:02;;;;;;;29.33;13.30;;;;;;;6.74;100.00;102844.81;5065699;28;20039;-72
2022/11/26 10:21:06;;;;;;;28.15;13.73;;;;;;;6.82;100.00;102850.38;5065022;28;20025;-72
2022/11/26 10:23:39;;;;;;;29.00;12.57;;;;;;;6.84;100.00;102847.47;5015803;28;20071;-72
2022/11/26 10:26:06;;;;;;;29.63;13.43;;;;;;;6.94;100.00;102842.78;5065579;28;20021;-72
2022/11/26 10:28:43;;;;;;;35.25;13.98;;;;;;;7.12;100.00;102840.91;5063554;28;20035;-73
2022/11/26 10:31:17;;;;;;;28.52;12.25;;;;;;;7.34;100.00;102836.78;5064425;28;20029;-74
2022/11/26 10:33:51;;;;;;;25.55;12.38;;;;;;;7.69;100.00;102827.59;5047582;28;20033;-73
2022/11/26 10:36:23;;;;;;;26.77;12.10;;;;;;;8.45;100.00;102831.31;5046200;28;20029;-73
2022/11/26 10:38:48;;;;;;;27.48;12.82;;;;;;;8.99;100.00;102826.22;5052324;28;20036;-72
2022/11/26 10:41:14;;;;;;;28.45;12.10;;;;;;;9.36;100.00;102811.94;5065931;28;20028;-73
2022/11/26 10:43:40;;;;;;;24.67;11.68;;;;;;;9.65;98.44;102821.50;5066047;28;20025;-73
2022/11/26 10:46:05;;;;;;;27.90;11.55;;;;;;;9.86;96.18;102817.13;5065382;28;20028;-73
2022/11/26 10:48:34;;;;;;;23.52;10.48;;;;;;;9.74;96.42;102813.06;5064247;28;20063;-73
2022/11/26 10:51:05;;;;;;;29.67;12.27;;;;;;;9.76;96.40;102821.09;5065443;28;20030;-73
2022/11/26 10:53:45;;;;;;;23.55;11.30;;;;;;;9.78;96.57;102819.03;5056078;28;20061;-73
2022/11/26 10:56:17;;;;;;;28.08;11.80;;;;;;;10.18;95.27;102820.72;5046015;28;20120;-73
2022/11/26 10:58:44;;;;;;;24.92;11.38;;;;;;;10.80;91.42;102820.72;5051034;28;20032;-73
2022/11/26 11:01:13;;;;;;;31.30;12.82;;;;;;;11.09;87.97;102817.19;5065370;28;20390;-72
2022/11/26 11:03:48;;;;;;;26.88;11.43;;;;;;;11.30;88.39;102810.09;5063883;28;20116;-72
2022/11/26 11:06:19;;;;;;;19.85;9.68;;;;;;;11.32;87.65;102806.16;5059804;28;20051;-73
2022/11/26 11:08:47;;;;;;;24.38;11.23;;;;;;;11.76;85.61;102796.16;5061595;28;20033;-72
2022/11/26 11:11:19;;;;;;;27.35;10.18;;;;;;;12.43;83.93;102807.03;5057975;28;20032;-72
2022/11/26 11:13:46;;;;;;;28.70;10.73;;;;;;;12.73;79.32;102814.13;5061463;28;20051;-72